createdAt,value
2023-04-22T00:01:00.778Z,98992.05
2023-04-22T00:03:28.448Z,98991.50
2023-04-22T00:05:55.453Z,98988.71
2023-04-22T00:08:22.300Z,98985.42
2023-04-22T00:10:49.416Z,98989.67
2023-04-22T00:13:16.425Z,98982.63
2023-04-22T00:15:43.241Z,98982.24
2023-04-22T00:18:13.376Z,98983.58
2023-04-22T00:20:43.178Z,98974.29
2023-04-22T00:23:11.693Z,98978.20
2023-04-22T00:25:39.388Z,98973.37
2023-04-22T00:28:06.606Z,98973.33
2023-04-22T00:30:34.826Z,98975.19
2023-04-22T00:33:01.966Z,98977.20
2023-04-22T00:35:29.956Z,98977.36
2023-04-22T00:37:56.786Z,98976.99
2023-04-22T00:40:23.643Z,98980.21
2023-04-22T00:42:51.056Z,98984.30
2023-04-22T00:45:18.702Z,98984.12
2023-04-22T00:47:46.328Z,98980.52
2023-04-22T00:50:13.256Z,98978.45
2023-04-22T00:52:40.227Z,98983.73
2023-04-22T00:55:07.841Z,98983.90
2023-04-22T00:57:35.208Z,98982.71
2023-04-22T01:00:04.203Z,98979.63
2023-04-22T01:02:31.488Z,98980.48
2023-04-22T01:04:58.711Z,98986.81
2023-04-22T01:07:26.233Z,98985.96
2023-04-22T01:09:53.371Z,98987.83
2023-04-22T01:12:20.346Z,98987.64
2023-04-22T01:14:47.305Z,98990.83
2023-04-22T01:17:15.649Z,98994.20
2023-04-22T01:19:42.961Z,98993.32
2023-04-22T01:22:10.908Z,98990.54
2023-04-22T01:24:37.944Z,98990.67
2023-04-22T01:27:04.998Z,98988.77
2023-04-22T01:29:33.107Z,98986.84
2023-04-22T01:32:01.433Z,98988.67
2023-04-22T01:34:30.092Z,98989.81
2023-04-22T01:36:57.062Z,98992.85
2023-04-22T01:39:23.839Z,98991.96
2023-04-22T01:41:50.726Z,98991.95
2023-04-22T01:44:19.109Z,98995.52
2023-04-22T01:46:46.057Z,98992.41
2023-04-22T01:49:12.926Z,98987.77
2023-04-22T01:51:39.840Z,98987.06
2023-04-22T01:54:06.628Z,98988.90
2023-04-22T01:56:33.809Z,98995.34
2023-04-22T01:59:00.680Z,98997.17
2023-04-22T02:01:31.647Z,98998.67
2023-04-22T02:03:58.759Z,99000.88
2023-04-22T02:06:26.937Z,99001.38
2023-04-22T02:08:54.136Z,99005.63
2023-04-22T02:11:21.547Z,99004.42
2023-04-22T02:13:49.466Z,99002.65
2023-04-22T02:16:19.217Z,99002.23
2023-04-22T02:18:46.317Z,99001.86
2023-04-22T02:21:12.977Z,99003.06
2023-04-22T02:23:40.948Z,99003.58
2023-04-22T02:26:07.858Z,99005.08
2023-04-22T02:28:35.528Z,99003.31
2023-04-22T02:31:02.589Z,99000.05
2023-04-22T02:33:30.258Z,99005.52
2023-04-22T02:35:57.017Z,99003.95
2023-04-22T02:38:23.688Z,99002.21
2023-04-22T02:40:50.512Z,99002.02
2023-04-22T02:43:17.977Z,98998.91
2023-04-22T02:45:44.744Z,99001.41
2023-04-22T02:48:11.886Z,98999.81
2023-04-22T02:50:40.076Z,99004.70
2023-04-22T02:53:08.168Z,99004.00
2023-04-22T02:55:35.187Z,99006.55
2023-04-22T02:58:02.326Z,99009.27
2023-04-22T03:00:29.181Z,99006.86
2023-04-22T03:02:56.241Z,99009.44
2023-04-22T03:05:30.065Z,99008.58
2023-04-22T03:07:57.064Z,99011.69
2023-04-22T03:10:23.720Z,99014.11
2023-04-22T03:12:50.900Z,99016.73
2023-04-22T03:15:21.215Z,99017.83
2023-04-22T03:17:49.040Z,99023.17
2023-04-22T03:20:16.463Z,99022.36
2023-04-22T03:22:43.293Z,99024.29
2023-04-22T03:25:10.966Z,99022.09
2023-04-22T03:27:38.679Z,99024.19
2023-04-22T03:30:06.979Z,99025.77
2023-04-22T03:32:34.456Z,99030.99
2023-04-22T03:35:17.843Z,99032.40
2023-04-22T03:37:46.119Z,99037.77
2023-04-22T03:40:14.046Z,99037.52
2023-04-22T03:42:41.592Z,99040.48
2023-04-22T03:45:09.180Z,99047.40
2023-04-22T03:47:38.340Z,99045.98
2023-04-22T03:50:12.391Z,99046.48
2023-04-22T03:52:39.179Z,99044.84
2023-04-22T03:55:06.199Z,99046.81
2023-04-22T03:57:33.624Z,99049.27
2023-04-22T04:00:00.642Z,99053.97
2023-04-22T04:02:27.722Z,99053.70
2023-04-22T04:04:56.098Z,99059.09
2023-04-22T04:07:23.276Z,99064.99
2023-04-22T04:09:50.270Z,99064.56
2023-04-22T04:12:17.542Z,99065.66
2023-04-22T04:14:44.912Z,99064.69
2023-04-22T04:17:14.740Z,99068.66
2023-04-22T04:19:42.219Z,99068.91
2023-04-22T04:22:10.134Z,99074.27
2023-04-22T04:24:42.612Z,99079.15
2023-04-22T04:27:15.686Z,99080.09
2023-04-22T04:29:47.324Z,99084.26
2023-04-22T04:32:17.720Z,99085.85
2023-04-22T04:34:45.278Z,99088.29
2023-04-22T04:37:12.643Z,99090.07
2023-04-22T04:39:49.397Z,99088.73
2023-04-22T04:42:16.485Z,99088.44
2023-04-22T04:44:50.989Z,99092.09
2023-04-22T04:47:19.598Z,99095.73
2023-04-22T04:49:46.679Z,99095.95
2023-04-22T04:52:14.736Z,99099.23
2023-04-22T04:54:41.908Z,99099.11
2023-04-22T04:57:09.668Z,99095.58
2023-04-22T04:59:37.390Z,99099.95
2023-04-22T05:02:06.265Z,99100.15
2023-04-22T05:04:33.909Z,99096.41
2023-04-22T05:07:01.100Z,99097.32
2023-04-22T05:09:29.302Z,99092.20
2023-04-22T05:11:56.581Z,99089.85
2023-04-22T05:14:25.982Z,99091.07
2023-04-22T05:16:53.020Z,99092.46
2023-04-22T05:19:20.750Z,99092.63
2023-04-22T05:21:47.728Z,99099.50
2023-04-22T05:24:14.949Z,99098.65
2023-04-22T05:26:41.983Z,99100.00
2023-04-22T05:29:14.017Z,99098.61
2023-04-22T05:31:41.190Z,99099.63
2023-04-22T05:34:08.103Z,99104.94
2023-04-22T05:36:35.257Z,99103.35
2023-04-22T05:39:02.231Z,99104.35
2023-04-22T05:41:30.119Z,99104.45
2023-04-22T05:43:57.683Z,99108.00
2023-04-22T05:46:28.445Z,99107.39
2023-04-22T05:48:56.209Z,99105.23
2023-04-22T05:51:43.214Z,99109.58
2023-04-22T05:54:11.676Z,99110.83
2023-04-22T05:56:38.611Z,99111.23
2023-04-22T05:59:05.804Z,99114.88
2023-04-22T06:01:32.727Z,99113.20
2023-04-22T06:04:06.206Z,99114.74
2023-04-22T06:06:35.200Z,99111.78
2023-04-22T06:09:02.068Z,99112.57
2023-04-22T06:11:29.060Z,99113.38
2023-04-22T06:13:56.165Z,99116.33
2023-04-22T06:16:23.287Z,99112.91
2023-04-22T06:18:50.398Z,99118.21
2023-04-22T06:21:17.357Z,99115.58
2023-04-22T06:23:44.221Z,99113.59
2023-04-22T06:26:11.775Z,99112.83
2023-04-22T06:28:39.296Z,99112.91
2023-04-22T06:31:10.604Z,99114.36
2023-04-22T06:33:37.895Z,99119.14
2023-04-22T06:36:05.351Z,99117.49
2023-04-22T06:38:32.811Z,99121.27
2023-04-22T06:41:18.663Z,99122.23
2023-04-22T06:43:49.325Z,99123.38
2023-04-22T06:46:19.362Z,99126.59
2023-04-22T06:49:07.516Z,99128.25
2023-04-22T06:52:02.872Z,99128.54
2023-04-22T06:54:31.389Z,99127.24
2023-04-22T06:56:58.475Z,99128.36
2023-04-22T06:59:25.328Z,99128.80
2023-04-22T07:01:52.357Z,99127.36
2023-04-22T07:04:19.529Z,99134.08
2023-04-22T07:06:46.578Z,99132.16
2023-04-22T07:09:13.343Z,99135.42
2023-04-22T07:11:40.262Z,99133.04
2023-04-22T07:14:14.857Z,99131.66
2023-04-22T07:16:41.679Z,99130.53
2023-04-22T07:19:08.704Z,99132.87
2023-04-22T07:21:36.143Z,99135.41
2023-04-22T07:24:03.044Z,99135.18
2023-04-22T07:26:31.429Z,99139.58
2023-04-22T07:28:58.414Z,99143.00
2023-04-22T07:31:25.366Z,99144.04
2023-04-22T07:33:52.484Z,99143.59
2023-04-22T07:36:19.295Z,99144.36
2023-04-22T07:38:46.253Z,99146.28
2023-04-22T07:41:13.449Z,99147.66
2023-04-22T07:43:40.218Z,99149.46
2023-04-22T07:46:06.956Z,99149.23
2023-04-22T07:48:33.949Z,99151.73
2023-04-22T07:51:00.757Z,99154.70
2023-04-22T07:53:27.640Z,99156.07
2023-04-22T07:55:55.282Z,99159.05
2023-04-22T07:58:22.159Z,99158.63
2023-04-22T08:00:49.200Z,99156.09
2023-04-22T08:03:16.568Z,99159.63
2023-04-22T08:05:43.477Z,99162.28
2023-04-22T08:08:10.225Z,99161.92
2023-04-22T08:10:37.733Z,99159.25
2023-04-22T08:13:05.560Z,99159.65
2023-04-22T08:15:32.472Z,99163.76
2023-04-22T08:17:59.241Z,99163.48
2023-04-22T08:20:26.239Z,99160.95
2023-04-22T08:22:57.621Z,99162.34
2023-04-22T08:25:24.583Z,99160.57
2023-04-22T08:27:51.862Z,99162.94
2023-04-22T08:30:18.687Z,99161.80
2023-04-22T08:32:46.089Z,99161.46
2023-04-22T08:35:12.882Z,99159.63
2023-04-22T08:37:40.213Z,99160.85
2023-04-22T08:40:08.121Z,99160.73
2023-04-22T08:42:34.937Z,99161.20
2023-04-22T08:45:02.622Z,99164.40
2023-04-22T08:47:32.196Z,99162.55
2023-04-22T08:50:00.709Z,99162.34
2023-04-22T08:52:27.295Z,99161.30
2023-04-22T08:54:54.051Z,99161.99
2023-04-22T08:57:20.795Z,99158.85
2023-04-22T08:59:47.923Z,99159.29
2023-04-22T09:02:20.889Z,99162.67
2023-04-22T09:04:49.293Z,99159.66
2023-04-22T09:07:19.120Z,99158.65
2023-04-22T09:09:46.293Z,99162.55
2023-04-22T09:12:12.974Z,99163.12
2023-04-22T09:14:40.065Z,99167.71
2023-04-22T09:17:06.893Z,99163.45
2023-04-22T09:19:34.617Z,99158.98
2023-04-22T09:22:01.269Z,99155.84
2023-04-22T09:24:27.920Z,99161.13
2023-04-22T09:27:00.385Z,99156.30
2023-04-22T09:29:31.192Z,99157.23
2023-04-22T09:31:57.826Z,99155.20
2023-04-22T09:34:24.724Z,99161.48
2023-04-22T09:36:51.554Z,99160.02
2023-04-22T09:39:18.391Z,99161.21
2023-04-22T09:41:45.075Z,99159.68
2023-04-22T09:44:17.466Z,99153.73
2023-04-22T09:46:44.398Z,99158.60
2023-04-22T09:49:11.140Z,99157.29
2023-04-22T09:51:40.088Z,99162.09
2023-04-22T09:54:10.793Z,99165.84
2023-04-22T09:56:51.262Z,99168.22
2023-04-22T09:59:22.312Z,99168.67
2023-04-22T10:01:53.087Z,99169.70
2023-04-22T10:04:24.384Z,99168.84
2023-04-22T10:06:54.287Z,99169.27
2023-04-22T10:09:22.558Z,99170.72
2023-04-22T10:11:50.784Z,99173.08
2023-04-22T10:14:17.741Z,99172.17
2023-04-22T10:16:46.288Z,99168.30
2023-04-22T10:19:23.344Z,99170.81
2023-04-22T10:21:55.811Z,99169.42
2023-04-22T10:24:25.125Z,99170.73
2023-04-22T10:26:59.405Z,99172.41
2023-04-22T10:29:27.265Z,99171.89
2023-04-22T10:32:23.291Z,99175.05
2023-04-22T10:34:50.115Z,99170.98
2023-04-22T10:37:20.179Z,99170.76
2023-04-22T10:40:07.437Z,99172.68
2023-04-22T10:42:35.854Z,99172.30
2023-04-22T10:45:03.831Z,99175.62
2023-04-22T10:47:37.783Z,99176.31
2023-04-22T10:50:14.041Z,99174.82
2023-04-22T10:52:41.662Z,99174.52
2023-04-22T10:55:08.366Z,99178.17
2023-04-22T10:57:42.723Z,99177.27
2023-04-22T11:00:23.361Z,99177.89
2023-04-22T11:02:53.941Z,99174.39
2023-04-22T11:05:25.879Z,99175.79
2023-04-22T11:07:55.181Z,99173.30
2023-04-22T11:10:44.436Z,99179.11
2023-04-22T11:13:16.300Z,99185.50
2023-04-22T11:15:45.009Z,99182.41
2023-04-22T11:18:17.814Z,99181.98
2023-04-22T11:20:44.682Z,99185.35
2023-04-22T11:23:11.503Z,99184.78
2023-04-22T11:25:38.311Z,99183.39
2023-04-22T11:28:05.079Z,99188.68
2023-04-22T11:30:31.891Z,99182.04
2023-04-22T11:33:00.157Z,99180.68
2023-04-22T11:35:31.016Z,99180.92
2023-04-22T11:38:03.473Z,99179.34
2023-04-22T11:40:46.165Z,99180.05
2023-04-22T11:43:14.193Z,99186.46
2023-04-22T11:45:40.982Z,99179.59
2023-04-22T11:48:08.892Z,99184.00
2023-04-22T11:50:37.678Z,99189.90
2023-04-22T11:53:13.706Z,99188.20
2023-04-22T11:55:40.551Z,99186.84
2023-04-22T11:58:08.936Z,99185.31
2023-04-22T12:00:37.312Z,99183.87
2023-04-22T12:03:14.718Z,99179.48
2023-04-22T12:05:42.902Z,99180.31
2023-04-22T12:08:13.812Z,99184.77
2023-04-22T12:10:47.920Z,99184.91
2023-04-22T12:13:31.352Z,99185.79
2023-04-22T12:15:59.695Z,99186.52
2023-04-22T12:18:30.274Z,99186.30
2023-04-22T12:21:06.192Z,99186.91
2023-04-22T12:23:45.670Z,99189.31
2023-04-22T12:26:12.631Z,99188.44
2023-04-22T12:28:39.615Z,99186.67
2023-04-22T12:31:06.736Z,99187.27
2023-04-22T12:33:34.004Z,99181.52
2023-04-22T12:36:00.824Z,99182.22
2023-04-22T12:38:27.890Z,99177.75
2023-04-22T12:40:54.666Z,99183.70
2023-04-22T12:43:21.752Z,99178.82
2023-04-22T12:45:49.279Z,99183.20
2023-04-22T12:48:16.555Z,99181.58
2023-04-22T12:50:43.700Z,99188.68
2023-04-22T12:53:10.699Z,99181.34
2023-04-22T12:55:37.565Z,99185.18
2023-04-22T12:58:04.417Z,99186.41
2023-04-22T13:00:31.732Z,99182.79
2023-04-22T13:02:58.623Z,99182.45
2023-04-22T13:05:25.393Z,99187.44
2023-04-22T13:08:05.687Z,99184.90
2023-04-22T13:10:33.771Z,99186.85
2023-04-22T13:13:15.834Z,99188.95
2023-04-22T13:15:44.699Z,99191.77
2023-04-22T13:18:11.488Z,99192.81
2023-04-22T13:20:39.509Z,99194.95
2023-04-22T13:23:07.614Z,99194.21
2023-04-22T13:25:35.568Z,99189.57
2023-04-22T13:28:02.863Z,99198.48
2023-04-22T13:30:29.847Z,99196.80
2023-04-22T13:32:56.684Z,99199.02
2023-04-22T13:35:23.701Z,99194.71
2023-04-22T13:37:50.536Z,99199.30
2023-04-22T13:40:17.164Z,99200.50
2023-04-22T13:42:44.064Z,99200.27
2023-04-22T13:45:10.682Z,99196.09
2023-04-22T13:47:38.262Z,99200.75
2023-04-22T13:50:05.789Z,99203.80
2023-04-22T13:52:33.428Z,99201.65
2023-04-22T13:55:00.383Z,99202.08
2023-04-22T13:57:27.262Z,99204.84
2023-04-22T13:59:53.998Z,99200.56
2023-04-22T14:02:20.778Z,99200.08
2023-04-22T14:04:47.574Z,99199.60
2023-04-22T14:07:14.231Z,99199.75
2023-04-22T14:09:41.238Z,99205.30
2023-04-22T14:12:08.426Z,99203.11
2023-04-22T14:14:35.305Z,99205.06
2023-04-22T14:17:02.177Z,99206.52
2023-04-22T14:19:29.816Z,99205.34
2023-04-22T14:21:56.666Z,99204.04
2023-04-22T14:24:23.722Z,99203.76
2023-04-22T14:26:51.728Z,99207.05
2023-04-22T14:29:18.517Z,99207.33
2023-04-22T14:31:45.158Z,99209.04
2023-04-22T14:34:11.872Z,99206.67
2023-04-22T14:36:38.709Z,99211.05
2023-04-22T14:39:05.601Z,99213.17
2023-04-22T14:41:32.298Z,99211.18
2023-04-22T14:43:59.127Z,99211.17
2023-04-22T14:46:25.888Z,99211.75
2023-04-22T14:48:52.711Z,99213.61
2023-04-22T14:51:19.328Z,99215.87
2023-04-22T14:53:45.987Z,99220.20
2023-04-22T14:56:12.871Z,99219.70
2023-04-22T14:58:39.645Z,99227.29
2023-04-22T15:01:07.500Z,99224.30
2023-04-22T15:03:36.001Z,99224.60
2023-04-22T15:06:03.406Z,99226.59
2023-04-22T15:08:30.365Z,99226.23
2023-04-22T15:10:59.086Z,99228.95
2023-04-22T15:13:26.535Z,99229.46
2023-04-22T15:15:53.329Z,99226.73
2023-04-22T15:18:20.077Z,99232.48
2023-04-22T15:20:46.862Z,99231.26
2023-04-22T15:23:14.100Z,99232.05
2023-04-22T15:25:41.045Z,99232.11
2023-04-22T15:28:07.895Z,99234.85
2023-04-22T15:30:35.572Z,99235.04
2023-04-22T15:33:04.630Z,99236.23
2023-04-22T15:35:31.539Z,99235.53
2023-04-22T15:37:58.253Z,99232.70
2023-04-22T15:40:25.305Z,99232.30
2023-04-22T15:42:51.918Z,99236.45
2023-04-22T15:45:19.222Z,99238.15
2023-04-22T15:47:46.039Z,99240.50
2023-04-22T15:50:12.873Z,99240.27
2023-04-22T15:52:39.694Z,99242.13
2023-04-22T15:55:07.204Z,99239.91
2023-04-22T15:57:34.254Z,99244.36
2023-04-22T16:00:11.845Z,99241.84
2023-04-22T16:02:43.466Z,99242.99
2023-04-22T16:05:13.783Z,99242.00
2023-04-22T16:07:40.795Z,99242.46
2023-04-22T16:10:08.533Z,99245.66
2023-04-22T16:12:35.862Z,99245.38
2023-04-22T16:15:02.764Z,99248.06
2023-04-22T16:17:29.866Z,99247.77
2023-04-22T16:19:56.724Z,99252.92
2023-04-22T16:22:23.675Z,99259.66
2023-04-22T16:24:50.534Z,99263.16
2023-04-22T16:27:18.566Z,99262.70
2023-04-22T16:29:45.449Z,99263.38
2023-04-22T16:32:12.371Z,99265.08
2023-04-22T16:34:39.171Z,99272.84
2023-04-22T16:37:06.290Z,99269.64
2023-04-22T16:39:33.283Z,99270.95
2023-04-22T16:42:01.665Z,99274.37
2023-04-22T16:44:28.474Z,99275.66
2023-04-22T16:46:55.294Z,99278.67
2023-04-22T16:49:23.642Z,99280.34
2023-04-22T16:51:50.438Z,99280.61
2023-04-22T16:54:17.005Z,99280.57
2023-04-22T16:56:43.573Z,99283.08
2023-04-22T16:59:10.486Z,99287.30
2023-04-22T17:01:37.414Z,99288.45
2023-04-22T17:04:04.110Z,99292.33
2023-04-22T17:06:31.912Z,99293.27
2023-04-22T17:08:59.406Z,99292.27
2023-04-22T17:11:26.150Z,99294.77
2023-04-22T17:13:53.128Z,99296.91
2023-04-22T17:16:20.431Z,99304.41
2023-04-22T17:18:47.299Z,99308.45
2023-04-22T17:21:14.335Z,99310.55
2023-04-22T17:23:41.031Z,99312.54
2023-04-22T17:26:08.001Z,99312.40
2023-04-22T17:28:34.939Z,99314.17
2023-04-22T17:31:03.218Z,99318.86
2023-04-22T17:33:30.732Z,99322.18
2023-04-22T17:35:57.473Z,99327.39
2023-04-22T17:38:24.234Z,99332.77
2023-04-22T17:40:51.018Z,99330.56
2023-04-22T17:43:18.432Z,99331.64
2023-04-22T17:45:45.358Z,99335.83
2023-04-22T17:48:12.148Z,99343.13
2023-04-22T17:50:39.111Z,99344.73
2023-04-22T17:53:05.912Z,99349.08
2023-04-22T17:55:34.693Z,99354.81
2023-04-22T17:58:02.208Z,99356.04
2023-04-22T18:00:29.658Z,99357.78
2023-04-22T18:02:56.359Z,99355.91
2023-04-22T18:05:23.176Z,99361.27
2023-04-22T18:07:50.085Z,99363.70
2023-04-22T18:10:16.824Z,99366.15
2023-04-22T18:12:43.457Z,99363.41
2023-04-22T18:15:10.124Z,99366.88
2023-04-22T18:17:37.386Z,99370.52
2023-04-22T18:20:16.665Z,99372.08
2023-04-22T18:22:48.171Z,99371.92
2023-04-22T18:25:15.409Z,99375.91
2023-04-22T18:27:42.450Z,99372.83
2023-04-22T18:30:09.464Z,99376.79
2023-04-22T18:32:36.770Z,99381.48
2023-04-22T18:35:04.080Z,99379.42
2023-04-22T18:37:33.693Z,99382.04
2023-04-22T18:40:00.433Z,99383.64
2023-04-22T18:42:27.066Z,99385.73
2023-04-22T18:44:53.948Z,99386.44
2023-04-22T18:47:20.849Z,99388.38
2023-04-22T18:49:47.647Z,99389.45
2023-04-22T18:52:15.751Z,99393.14
2023-04-22T18:54:42.844Z,99394.22
2023-04-22T18:57:10.432Z,99393.91
2023-04-22T18:59:37.334Z,99396.70
2023-04-22T19:02:04.389Z,99399.30
2023-04-22T19:04:31.394Z,99398.83
2023-04-22T19:06:58.592Z,99398.66
2023-04-22T19:09:25.412Z,99398.70
2023-04-22T19:11:52.410Z,99401.32
2023-04-22T19:14:19.041Z,99399.96
2023-04-22T19:16:45.772Z,99400.16
2023-04-22T19:19:12.292Z,99398.30
2023-04-22T19:21:38.979Z,99404.71
2023-04-22T19:24:06.074Z,99404.40
2023-04-22T19:26:33.012Z,99405.45
2023-04-22T19:28:59.874Z,99411.70
2023-04-22T19:31:30.238Z,99410.34
2023-04-22T19:33:57.339Z,99410.02
2023-04-22T19:36:24.091Z,99412.98
2023-04-22T19:38:50.970Z,99414.55
2023-04-22T19:41:17.623Z,99410.77
2023-04-22T19:43:44.868Z,99411.29
2023-04-22T19:46:11.699Z,99417.02
2023-04-22T19:48:38.835Z,99418.77
2023-04-22T19:51:06.233Z,99422.94
2023-04-22T19:53:33.285Z,99421.21
2023-04-22T19:56:00.270Z,99422.45
2023-04-22T19:58:27.776Z,99424.90
2023-04-22T20:00:54.973Z,99422.16
2023-04-22T20:03:22.374Z,99423.59
2023-04-22T20:05:49.746Z,99425.17
2023-04-22T20:08:19.180Z,99427.43
2023-04-22T20:10:48.742Z,99425.73
2023-04-22T20:13:16.380Z,99429.88
2023-04-22T20:15:44.023Z,99430.58
2023-04-22T20:18:10.772Z,99432.66
2023-04-22T20:20:45.822Z,99436.67
2023-04-22T20:23:12.950Z,99437.35
2023-04-22T20:25:42.032Z,99437.19
2023-04-22T20:28:10.187Z,99441.17
2023-04-22T20:30:37.768Z,99440.83
2023-04-22T20:33:04.793Z,99444.14
2023-04-22T20:35:31.983Z,99442.25
2023-04-22T20:37:58.985Z,99440.88
2023-04-22T20:40:25.736Z,99442.26
2023-04-22T20:42:52.428Z,99442.80
2023-04-22T20:45:19.756Z,99442.48
2023-04-22T20:47:46.566Z,99442.66
2023-04-22T20:50:13.358Z,99443.55
2023-04-22T20:52:40.231Z,99440.45
2023-04-22T20:55:07.242Z,99443.05
2023-04-22T20:57:34.726Z,99443.40
2023-04-22T21:00:01.577Z,99443.92
2023-04-22T21:02:28.549Z,99439.96
2023-04-22T21:04:56.940Z,99442.20
2023-04-22T21:07:24.406Z,99437.90
2023-04-22T21:09:51.307Z,99436.73
2023-04-22T21:12:18.822Z,99436.90
2023-04-22T21:14:46.269Z,99437.95
2023-04-22T21:17:29.307Z,99438.80
2023-04-22T21:19:57.515Z,99439.84
2023-04-22T21:22:24.502Z,99438.81
2023-04-22T21:24:51.684Z,99438.98
2023-04-22T21:27:19.646Z,99438.14
2023-04-22T21:29:47.957Z,99444.52
2023-04-22T21:32:15.124Z,99445.20
2023-04-22T21:34:42.341Z,99441.60
2023-04-22T21:37:09.581Z,99445.39
2023-04-22T21:39:36.325Z,99442.30
2023-04-22T21:42:06.952Z,99443.16
2023-04-22T21:44:35.354Z,99441.27
2023-04-22T21:47:02.302Z,99443.88
2023-04-22T21:49:29.152Z,99446.14
2023-04-22T21:51:55.964Z,99446.48
2023-04-22T21:54:22.721Z,99447.17
2023-04-22T21:56:50.184Z,99452.86
2023-04-22T21:59:16.889Z,99453.05
2023-04-22T22:01:43.622Z,99455.48
2023-04-22T22:06:37.765Z,99459.47
2023-04-22T22:09:04.560Z,99462.55
2023-04-22T22:11:31.646Z,99459.29
2023-04-22T22:13:58.610Z,99460.52
2023-04-22T22:16:25.298Z,99459.48
2023-04-22T22:18:52.130Z,99458.44
2023-04-22T22:21:18.859Z,99463.62
2023-04-22T22:23:45.574Z,99457.09
2023-04-22T22:26:12.303Z,99456.73
2023-04-22T22:28:39.072Z,99456.74
2023-04-22T22:31:06.312Z,99457.95
2023-04-22T22:33:33.425Z,99455.02
2023-04-22T22:36:00.266Z,99457.45
2023-04-22T22:38:26.982Z,99452.45
2023-04-22T22:40:53.670Z,99455.05
2023-04-22T22:43:20.313Z,99454.19
2023-04-22T22:45:47.071Z,99454.21
2023-04-22T22:48:13.751Z,99454.55
2023-04-22T22:50:40.508Z,99456.29
2023-04-22T22:53:07.400Z,99460.41
2023-04-22T22:55:34.575Z,99464.55
2023-04-22T22:58:01.245Z,99461.11
2023-04-22T23:00:28.526Z,99461.63
2023-04-22T23:02:55.622Z,99463.86
2023-04-22T23:05:22.580Z,99462.84
2023-04-22T23:07:49.307Z,99467.33
2023-04-22T23:10:16.268Z,99466.96
2023-04-22T23:12:43.028Z,99466.11
2023-04-22T23:15:10.370Z,99470.25
2023-04-22T23:17:37.421Z,99466.46
2023-04-22T23:20:07.572Z,99468.87
2023-04-22T23:22:35.663Z,99468.87
2023-04-22T23:25:02.558Z,99469.38
2023-04-22T23:27:29.474Z,99468.70
2023-04-22T23:29:56.382Z,99468.52
2023-04-22T23:32:25.941Z,99472.13
2023-04-22T23:34:52.993Z,99472.47
2023-04-22T23:37:20.881Z,99469.70
2023-04-22T23:39:47.506Z,99469.54
2023-04-22T23:42:14.100Z,99472.11
2023-04-22T23:44:41.091Z,99472.11
2023-04-22T23:47:08.023Z,99472.96
2023-04-22T23:49:34.959Z,99473.99
2023-04-22T23:52:01.738Z,99472.27
2023-04-22T23:54:29.584Z,99474.15
2023-04-22T23:56:57.425Z,99474.14
2023-04-22T23:59:24.365Z,99472.25
